• Join FlightAware (Why Join?)
  • Login
  • US Flag 
02:35AM EST


 

Airport Tracker/Info


-or-


 

Live Flight TrackerFlight Track Log ✈ SWA1451 ✈ 24-Apr-2013 ✈ KDEN - KPHX

Flight Track Log - Related Links

Times and Time Zones

All times are in EDT time to prevent confusion due to time zone crossing. See the SWA1451 flight status page for this flight to view local times or setup timezone preferences in your user account.

Time Position Orientation Groundspeed Altitude Reporting Facility
EDT Latitude Longitude Course Direction KTS MPH feet Rate Location/Type
10:36AM 39.7167 -104.6833 191° South 256 295 10,100  Level Denver TRACON
10:37AM 39.6847 -104.6825 179° South 277 319 10,300 1,740 Climbing Denver Center
10:38AM 39.5914 -104.6747 176° South 337 388 12,700 3,240 Climbing Denver Center
10:39AM 39.5019 -104.7469 212° Southwest 352 405 17,000 3,660 Climbing Denver Center
10:40AM 39.4194 -104.8206 215° Southwest 360 414 20,300 2,880 Climbing Denver Center
10:41AM 39.3289 -104.9003 214° Southwest 365 420 23,000 2,100 Climbing Denver Center
10:42AM 39.2389 -104.9772 214° Southwest 375 432 24,700 2,040 Climbing Denver Center
10:43AM 39.1514 -105.0533 214° Southwest 379 436 27,300 2,520 Climbing Denver Center
10:44AM 39.0547 -105.1172 207° Southwest 390 449 30,000 2,400 Climbing Denver Center
10:45AM 38.9575 -105.1797 207° Southwest 385 443 32,300 1,860 Climbing Denver Center
10:46AM 38.8622 -105.2408 207° Southwest 377 434 33,900 1,560 Climbing Denver Center
10:47AM 38.7628 -105.3050 207° Southwest 394 453 35,600 960 Climbing Denver Center
10:48AM 38.6642 -105.3669 206° Southwest 393 452 36,000 180 Climbing Denver Center
10:49AM 38.5489 -105.4419 207° Southwest 393 452 36,000  Level Denver Center
10:50AM 38.4508 -105.5031 206° Southwest 390 449 36,000  Level Denver Center
10:51AM 38.3528 -105.5639 206° Southwest 389 448 36,000  Level Denver Center
10:52AM 38.2572 -105.6250 207° Southwest 382 440 36,000  Level Denver Center
10:53AM 38.1611 -105.6847 206° Southwest 381 438 36,000  Level Denver Center
10:54AM 38.0650 -105.7456 206° Southwest 382 440 36,000  Level Denver Center
10:55AM 37.9808 -105.8181 214° Southwest 367 422 36,000  Level Denver Center
10:56AM 37.8986 -105.9208 225° Southwest 355 409 36,000  Level Denver Center
10:57AM 37.8308 -106.0122 227° Southwest 352 405 36,000  Level Denver Center
10:58AM 37.8272 -106.1286 268° West 332 382 36,000  Level Denver Center
11:00AM 37.8308 -106.2378 272° West 340 391 36,000  Level Denver Center
11:01AM 37.7533 -106.3394 226° Southwest 367 422 36,000  Level Denver Center
11:02AM 37.6811 -106.4214 222° Southwest 365 420 36,000  Level Denver Center
11:03AM 37.5997 -106.5194 224° Southwest 363 418 36,000  Level Denver Center
11:04AM 37.5281 -106.6019 222° Southwest 364 419 36,000  Level Denver Center
11:05AM 37.4450 -106.6978 223° Southwest 363 418 36,000  Level Denver Center
11:06AM 37.3733 -106.7789 222° Southwest 361 415 36,000  Level Denver Center
11:07AM 37.2900 -106.8739 222° Southwest 363 418 36,000  Level Denver Center
11:08AM 37.2186 -106.9553 222° Southwest 363 418 36,000  Level Denver Center
11:09AM 37.1336 -107.0511 222° Southwest 367 422 36,000  Level Denver Center
11:10AM 37.0608 -107.1328 222° Southwest 367 422 36,000  Level Denver Center
11:11AM 36.9758 -107.2292 222° Southwest 370 426 36,000  Level Denver Center
11:12AM 36.9022 -107.3119 222° Southwest 372 428 36,000  Level Denver Center
11:13AM 36.8283 -107.3950 222° Southwest 373 429 36,000  Level Denver Center
11:14AM 36.7422 -107.4906 222° Southwest 372 428 36,000  Level Denver Center
11:15AM 36.6675 -107.5736 222° Southwest 374 430 36,000  Level Denver Center
11:16AM 36.5808 -107.6714 222° Southwest 375 432 36,000  Level Denver Center
11:17AM 36.5058 -107.7536 221° Southwest 376 433 36,000  Level Denver Center
11:18AM 36.4181 -107.8511 222° Southwest 377 434 36,000  Level Denver Center
11:19AM 36.3417 -107.9350 222° Southwest 381 438 36,000  Level Denver Center
11:20AM 36.2542 -108.0317 222° Southwest 378 435 36,000  Level Denver Center
11:21AM 36.1775 -108.1147 221° Southwest 379 436 36,000  Level Denver Center
11:22AM 36.0894 -108.2106 221° Southwest 378 435 36,000  Level Denver Center
11:23AM 36.0133 -108.2939 222° Southwest 379 436 36,000  Level Denver Center
11:24AM 35.9372 -108.3758 221° Southwest 378 435 36,000  Level Denver Center
11:25AM 35.8497 -108.4725 222° Southwest 377 434 36,000  Level Denver Center
11:26AM 35.7731 -108.5536 221° Southwest 376 433 36,000  Level Denver Center
11:27AM 35.6853 -108.6494 222° Southwest 376 433 36,000  Level Denver Center
11:28AM 35.6086 -108.7319 221° Southwest 378 435 36,000  Level Denver Center
11:30AM 35.5200 -108.8264 221° Southwest 376 433 36,000  Level Denver Center
11:31AM 35.4469 -108.9083 222° Southwest 373 429 36,000  Level Denver Center
11:32AM 35.3581 -109.0283 228° Southwest 373 429 36,000  Level Albuquerque Center
11:33AM 35.2892 -109.1169 226° Southwest 374 430 36,000  Level Albuquerque Center
11:34AM 35.2214 -109.2053 227° Southwest 372 428 36,000  Level Albuquerque Center
11:35AM 35.1406 -109.3089 226° Southwest 376 433 36,000  Level Albuquerque Center
11:36AM 35.0717 -109.3972 226° Southwest 375 432 36,000  Level Albuquerque Center
11:37AM 34.9906 -109.4964 225° Southwest 370 426 36,000  Level Albuquerque Center
11:38AM 34.9222 -109.5833 226° Southwest 368 423 36,000  Level Albuquerque Center
11:39AM 34.8425 -109.6847 226° Southwest 371 427 36,000 -240 Level Albuquerque Center
11:40AM 34.7739 -109.7733 227° Southwest 373 429 35,500 -720 Descending Albuquerque Center
11:41AM 34.6978 -109.8792 229° Southwest 373 429 34,500 -1,020 Descending Albuquerque Center
11:42AM 34.6592 -109.9900 247° West 375 432 33,500 -1,080 Descending Albuquerque Center
11:43AM 34.6131 -110.1200 247° West 377 434 32,300 -780 Descending Albuquerque Center
11:44AM 34.5756 -110.2289 247° West 370 426 32,000 -180 Descending Albuquerque Center
11:45AM 34.5247 -110.3450 242° Southwest 352 405 32,000  Level Albuquerque Center
11:46AM 34.4911 -110.4419 247° West 365 420 32,000  Level Albuquerque Center
11:47AM 34.4433 -110.5806 247° West 372 428 32,000 -960 Level Albuquerque Center
11:48AM 34.3981 -110.6897 243° Southwest 367 422 30,100 -1,980 Descending Albuquerque Center
11:49AM 34.3514 -110.7958 242° Southwest 361 415 28,000 -1,080 Descending Albuquerque Center
11:50AM 34.2831 -110.8875 228° Southwest 372 428 27,900 -1,200 Descending Albuquerque Center
11:51AM 34.2147 -110.9758 227° Southwest 366 421 25,600 -2,220 Descending Albuquerque Center
11:52AM 34.1486 -111.0611 227° Southwest 354 407 23,400 -1,920 Descending Albuquerque Center
11:53AM 34.0722 -111.1589 227° Southwest 339 390 21,700 -1,800 Descending Albuquerque Center
11:54AM 34.0114 -111.2381 227° Southwest 328 377 19,800 -1,920 Descending Albuquerque Center
11:56AM 33.9522 -111.3147 227° Southwest 314 361 17,800 -1,800 Descending Albuquerque Center
11:57AM 33.8931 -111.3906 227° Southwest 310 357 16,200 -1,440 Descending Albuquerque Center
11:58AM 33.8486 -111.4678 235° Southwest 281 323 14,900 -1,500 Descending Albuquerque Center
11:59AM 33.8069 -111.5453 237° Southwest 274 315 13,200 -1,560 Descending Albuquerque Center
12:00PM 33.7658 -111.6228 237° Southwest 273 314 11,700 -1,560 Descending Albuquerque Center
12:01PM 33.7181 -111.7142 238° Southwest 269 310 10,000 -840 Descending Albuquerque Center
12:02PM 33.6761 -111.7900 236° Southwest 271 312 10,000 -300 Level Albuquerque Center
12:03PM 33.6356 -111.8647 237° Southwest 267 307 9,400 -540 Descending Albuquerque Center
12:04PM 33.5972 -111.9347 237° Southwest 253 291 9,000 -600 Descending Albuquerque Center
12:05PM 33.5625 -112.0006 238° Southwest 235 270 8,200 -1,020 Descending Albuquerque Center
12:06PM 33.5283 -112.0664 238° Southwest 233 268 7,000 -780 Descending Albuquerque Center
12:07PM 33.5258 -112.1392 268° West 216 249 6,700 -660 Descending Albuquerque Center
12:08PM 33.5136 -112.1967 256° West 189 217 5,700 -1,260 Descending Albuquerque Center
12:09PM 33.4600 -112.1856 170° South 183 211 4,100 -1,320 Descending Albuquerque Center
12:11PM 33.4333 -112.1000 110° East 168 193 2,200 -1,020 Descending Phoenix TRACON
12:11PM 33.4406 -112.0783 68° East 165 190 2,000 -600 Descending Albuquerque Center
12:12PM 33.4406 -112.0367 90° East 131 151 1,400 -600 Descending Albuquerque Center